Time;durP1;ratioP1;P1;durP2;ratioP2;P2;SDS_P1;SDS_P2;PMS_P1;PMS_P2;Temp;Humidity;BMP_temperature;BMP_pressure;BME280_temperature;BME280_humidity;BME280_pressure;Samples;Min_cycle;Max_cycle;Signal;HPM_P1;HPM_P2
2023/10/12 00:01:09;;;;;;;;;;;;;;;-140.72;100.00;52831.19;5068527;28;19920;-70
2023/10/12 00:03:34;;;;;;;;;;;;;;;-140.72;100.00;52827.16;5067612;28;19921;-70
2023/10/12 00:05:59;;;;;;;;;;;;;;;-140.72;100.00;52833.22;5067848;28;19927;-69
2023/10/12 00:08:31;;;;;;;;;;;;;;;-140.72;100.00;60271.66;5072683;28;19921;-69
2023/10/12 00:10:57;;;;;;;;;;;;;;;-140.72;100.00;60202.53;5063842;28;19924;-69
2023/10/12 00:13:29;;;;;;;;;;;;;;;-140.72;100.00;60190.34;5073391;28;19921;-69
2023/10/12 00:15:55;;;;;;;;;;;;;;;-140.72;100.00;60202.53;5071092;28;19928;-69
2023/10/12 00:18:22;;;;;;;;;;;;;;;-140.72;100.00;60222.88;5071350;28;19927;-69
2023/10/12 00:20:54;;;;;;;;;;;;;;;-140.72;100.00;60259.47;5073938;28;20009;-69
2023/10/12 00:23:19;;;;;;;;;;;;;;;-140.72;100.00;60296.06;5067929;28;19927;-70
2023/10/12 00:25:46;;;;;;;;;;;;;;;-140.72;100.00;60255.41;5069331;28;19921;-69
2023/10/12 00:28:19;;;;;;;;;;;;;;;-140.72;100.00;60324.53;5071711;28;19972;-69
2023/10/12 00:30:46;;;;;;;;;;;;;;;-140.72;100.00;60320.47;5070194;28;20403;-70
2023/10/12 00:33:12;;;;;;;;;;;;;;;-140.72;100.00;60381.44;5069744;28;20007;-69
2023/10/12 00:35:37;;;;;;;;;;;;;;;-140.72;100.00;60375.34;5075140;28;19970;-70
2023/10/12 00:38:16;;;;;;;;;;;;;;;-140.72;100.00;60442.44;5072724;28;20024;-69
2023/10/12 00:40:48;;;;;;;;;;;;;;;-140.72;100.00;60466.84;5069715;28;19920;-69
2023/10/12 00:43:15;;;;;;;;;;;;;;;-140.72;100.00;60527.84;5068658;28;20007;-69
2023/10/12 00:45:40;;;;;;;;;;;;;;;-140.72;100.00;60513.63;5074737;28;19924;-69
2023/10/12 00:48:08;;;;;;;;;;;;;;;-140.72;100.00;60572.59;5071839;28;20007;-69
2023/10/12 00:50:37;;;;;;;;;;;;;;;-140.72;100.00;60562.41;5072299;28;19924;-69
2023/10/12 00:53:22;;;;;;;;;;;;;;;-140.72;100.00;60588.84;5069332;28;20339;-69
2023/10/12 00:55:47;;;;;;;;;;;;;;;-140.72;100.00;60617.31;5071145;28;19931;-69
2023/10/12 00:58:14;;;;;;;;;;;;;;;-140.72;100.00;60594.94;5064753;28;20365;-69
2023/10/12 01:00:45;;;;;;;;;;;;;;;-140.72;100.00;60609.19;5067431;28;19926;-70
2023/10/12 01:08:42;;;;;;;;;;;;;;;-140.72;100.00;60631.53;5071843;28;19921;-69
2023/10/12 01:11:07;;;;;;;;;;;;;;;-140.72;100.00;60607.16;5071334;28;19928;-70
2023/10/12 01:13:33;;;;;;;;;;;;;;;-140.72;100.00;60599.00;5070657;28;19917;-70
2023/10/12 01:16:20;;;;;;;;;;;;;;;-140.72;100.00;60613.25;5069764;28;19970;-69
2023/10/12 01:18:45;;;;;;;;;;;;;;;-140.72;100.00;60586.81;5074971;28;19920;-70
2023/10/12 01:21:11;;;;;;;;;;;;;;;-140.72;100.00;60627.47;5073900;28;19935;-69
2023/10/12 01:23:36;;;;;;;;;;;;;;;-140.72;100.00;60674.25;5077077;28;19950;-70
2023/10/12 01:26:10;;;;;;;;;;;;;;;-140.72;100.00;60649.84;5073084;28;19960;-70
2023/10/12 01:28:37;;;;;;;;;;;;;;;-140.72;100.00;60676.28;5073997;28;19920;-69
2023/10/12 01:31:06;;;;;;;;;;;;;;;-140.72;100.00;60674.25;5070861;28;19928;-69
2023/10/12 01:33:31;;;;;;;;;;;;;;;-140.72;100.00;60686.44;5072858;28;19921;-70
2023/10/12 01:35:56;;;;;;;;;;;;;;;-140.72;100.00;60694.59;5075256;28;19920;-70
2023/10/12 01:38:22;;;;;;;;;;;;;;;-140.72;100.00;60666.13;5074684;28;19928;-70
2023/10/12 01:43:17;;;;;;;;;;;;;;;-140.72;100.00;60757.63;5076203;28;20007;-69
2023/10/12 01:45:43;;;;;;;;;;;;;;;-140.72;100.00;60761.69;5073371;28;19927;-69
2023/10/12 01:48:16;;;;;;;;;;;;;;;-140.72;100.00;60757.63;5066928;28;19924;-69
2023/10/12 01:50:41;;;;;;;;;;;;;;;-140.72;100.00;60794.22;5074688;28;19928;-69
2023/10/12 01:55:45;;;;;;;;;;;;;;;-140.72;100.00;60824.72;5074096;28;19920;-69
2023/10/12 01:58:12;;;;;;;;;;;;;;;-140.72;100.00;60857.25;5073265;28;19916;-69
2023/10/12 02:00:41;;;;;;;;;;;;;;;-140.72;100.00;60843.03;5074347;28;19999;-70
2023/10/12 02:03:17;;;;;;;;;;;;;;;-140.72;100.00;60881.66;5072923;28;19951;-70
2023/10/12 02:06:44;;;;;;;;;;;;;;;-140.72;100.00;60881.66;5075194;28;19924;-70
2023/10/12 02:08:40;;;;;;;;;;;;;;;-140.72;100.00;60936.56;5077420;28;20343;-70
2023/10/12 02:11:35;;;;;;;;;;;;;;;-140.72;100.00;60971.13;5072762;28;19920;-70
2023/10/12 02:13:54;;;;;;;;;;;;;;;-140.72;100.00;60993.50;5069913;28;19962;-70
2023/10/12 02:16:31;;;;;;;;;;;;;;;-140.72;100.00;60969.09;5075269;28;19916;-69
2023/10/12 02:19:04;;;;;;;;;;;;;;;-140.72;100.00;61011.81;5064808;28;19924;-69
2023/10/12 02:21:33;;;;;;;;;;;;;;;-140.72;100.00;61003.66;5069952;28;20317;-69
2023/10/12 02:24:11;;;;;;;;;;;;;;;-140.72;100.00;61046.38;5074018;28;20040;-70
2023/10/12 02:29:17;;;;;;;;;;;;;;;-140.72;100.00;61044.34;5078135;28;19956;-70
2023/10/12 02:34:25;;;;;;;;;;;;;;;-140.72;100.00;61129.75;5076227;28;19924;-70
2023/10/12 02:39:42;;;;;;;;;;;;;;;-140.72;100.00;61121.59;5074607;28;20310;-70
2023/10/12 02:44:56;;;;;;;;;;;;;;;-140.72;100.00;61166.34;5075067;28;19920;-70
2023/10/12 02:47:24;;;;;;;;;;;;;;;-140.72;100.00;61137.88;5080511;28;19917;-70
2023/10/12 02:49:51;;;;;;;;;;;;;;;-140.72;100.00;61139.91;5065023;28;20027;-69
2023/10/12 02:52:16;;;;;;;;;;;;;;;-140.72;100.00;61174.47;5067291;28;20019;-70
2023/10/12 02:54:50;;;;;;;;;;;;;;;-140.72;100.00;61223.28;5079606;28;19971;-70
2023/10/12 02:57:37;;;;;;;;;;;;;;;-140.72;100.00;61249.72;5077020;28;20015;-70
2023/10/12 03:00:12;;;;;;;;;;;;;;;-140.72;100.00;61241.59;5074684;28;19927;-70
2023/10/12 03:02:40;;;;;;;;;;;;;;;-140.72;100.00;61280.22;5085383;28;19916;-70
2023/10/12 03:05:07;;;;;;;;;;;;;;;-140.72;100.00;61255.81;5072860;28;20414;-70
2023/10/12 03:07:37;;;;;;;;;;;;;;;-140.72;100.00;61251.75;5066017;28;19921;-70
2023/10/12 03:10:06;;;;;;;;;;;;;;;-140.72;100.00;61266.00;5073896;28;19920;-69
2023/10/12 03:12:35;;;;;;;;;;;;;;;-140.72;100.00;61306.66;5074389;28;20069;-70
2023/10/12 03:15:12;;;;;;;;;;;;;;;-140.72;100.00;61298.53;5075548;28;19970;-70
2023/10/12 03:17:42;;;;;;;;;;;;;;;-140.72;100.00;61316.84;5076220;28;19928;-69
2023/10/12 03:20:22;;;;;;;;;;;;;;;-140.72;100.00;61341.25;5075717;28;20293;-70
2023/10/12 03:22:52;;;;;;;;;;;;;;;-140.72;100.00;61337.19;5075887;28;19924;-70
2023/10/12 03:25:20;;;;;;;;;;;;;;;-140.72;100.00;61300.56;5062738;28;19927;-70
2023/10/12 03:27:52;;;;;;;;;;;;;;;-140.72;100.00;61322.94;5075053;28;20120;-70
2023/10/12 03:30:18;;;;;;;;;;;;;;;-140.72;100.00;61365.66;5075779;28;19952;-70
2023/10/12 03:32:44;;;;;;;;;;;;;;;-140.72;100.00;61353.44;5074115;28;19963;-70
2023/10/12 03:35:13;;;;;;;;;;;;;;;-140.72;100.00;61388.03;5077190;28;19942;-70
2023/10/12 03:38:00;;;;;;;;;;;;;;;-140.72;100.00;61386.00;5075018;28;19921;-71
2023/10/12 03:43:13;;;;;;;;;;;;;;;-140.72;100.00;61428.69;5069173;28;20294;-70
2023/10/12 03:45:49;;;;;;;;;;;;;;;-140.72;100.00;61430.72;5067530;28;19923;-70
2023/10/12 03:48:47;;;;;;;;;;;;;;;-140.72;100.00;61418.53;5068376;28;20015;-71
2023/10/12 03:53:46;;;;;;;;;;;;;;;-140.72;100.00;61493.78;5077388;28;20367;-70
2023/10/12 03:56:15;;;;;;;;;;;;;;;-140.72;100.00;61499.88;5076969;28;19921;-70
2023/10/12 03:58:46;;;;;;;;;;;;;;;-140.72;100.00;61495.81;5073155;28;19916;-70
2023/10/12 04:03:45;;;;;;;;;;;;;;;-140.72;100.00;61552.75;5061800;28;19974;-70
2023/10/12 04:06:15;;;;;;;;;;;;;;;-140.72;100.00;61522.25;5073454;28;19917;-70
2023/10/12 04:08:49;;;;;;;;;;;;;;;-140.72;100.00;61505.97;5074817;28;19916;-69
2023/10/12 04:21:22;;;;;;;;;;;;;;;-140.72;100.00;61573.09;5067266;28;19921;-71
2023/10/12 04:28:57;;;;;;;;;;;;;;;-140.72;100.00;61546.66;5075938;28;19920;-73
2023/10/12 04:34:05;;;;;;;;;;;;;;;-140.72;100.00;61573.09;5067629;28;19929;-74
2023/10/12 04:36:35;;;;;;;;;;;;;;;-140.72;100.00;61577.16;5070285;28;20817;-72
2023/10/12 04:39:13;;;;;;;;;;;;;;;-140.72;100.00;61536.47;5072212;28;19927;-72
2023/10/12 04:41:47;;;;;;;;;;;;;;;-140.72;100.00;61560.88;5070625;28;20367;-72
2023/10/12 04:46:59;;;;;;;;;;;;;;;-140.72;100.00;61573.09;5066693;28;19920;-72
2023/10/12 04:52:40;;;;;;;;;;;;;;;-140.72;100.00;61567.00;5070977;28;20294;-72
2023/10/12 04:55:20;;;;;;;;;;;;;;;-140.72;100.00;61581.22;5068031;28;20018;-72
2023/10/12 04:58:22;;;;;;;;;;;;;;;-140.72;100.00;61581.22;5073168;28;20011;-71
2023/10/12 05:00:48;;;;;;;;;;;;;;;-140.72;100.00;61562.91;5069827;28;19989;-71
2023/10/12 05:03:25;;;;;;;;;;;;;;;-140.72;100.00;61581.22;5068441;28;19927;-71
2023/10/12 05:06:04;;;;;;;;;;;;;;;-140.72;100.00;61601.56;5071016;28;19920;-71
2023/10/12 05:08:31;;;;;;;;;;;;;;;-140.72;100.00;61593.44;5072312;28;19924;-72
2023/10/12 05:10:57;;;;;;;;;;;;;;;-140.72;100.00;61569.03;5069057;28;19986;-71
2023/10/12 05:13:22;;;;;;;;;;;;;;;-140.72;100.00;61550.72;5067339;28;19921;-71
2023/10/12 05:16:06;;;;;;;;;;;;;;;-140.72;100.00;61544.63;5072073;28;19931;-71
2023/10/12 05:18:32;;;;;;;;;;;;;;;-140.72;100.00;61554.78;5064425;28;19921;-70
2023/10/12 05:20:59;;;;;;;;;;;;;;;-140.72;100.00;61556.81;5071380;28;20398;-71
2023/10/12 05:23:24;;;;;;;;;;;;;;;-140.72;100.00;61530.38;5068269;28;19921;-71
2023/10/12 05:28:18;;;;;;;;;;;;;;;-140.72;100.00;61499.88;5070393;28;19924;-71
2023/10/12 05:30:50;;;;;;;;;;;;;;;-140.72;100.00;61463.28;5066279;28;19921;-71
2023/10/12 05:33:37;;;;;;;;;;;;;;;-140.72;100.00;61400.22;5068704;28;19966;-71
2023/10/12 05:36:03;;;;;;;;;;;;;;;-140.72;100.00;61412.44;5067124;28;19927;-73
2023/10/12 05:38:35;;;;;;;;;;;;;;;-140.72;100.00;61373.78;5071246;28;19963;-73
2023/10/12 05:41:01;;;;;;;;;;;;;;;-140.72;100.00;61327.00;5066732;28;19920;-71
2023/10/12 05:43:29;;;;;;;;;;;;;;;-140.72;100.00;61251.75;5078164;28;19928;-73
2023/10/12 05:46:01;;;;;;;;;;;;;;;-140.72;100.00;61251.75;5074513;28;20404;-71
2023/10/12 05:48:26;;;;;;;;;;;;;;;-140.72;100.00;61186.69;5067620;28;19924;-74
2023/10/12 05:50:53;;;;;;;;;;;;;;;-140.72;100.00;61166.34;5072393;28;19978;-72
2023/10/12 05:53:20;;;;;;;;;;;;;;;-140.72;100.00;61103.31;5070257;28;20325;-73
2023/10/12 05:55:47;;;;;;;;;;;;;;;-140.72;100.00;61028.06;5066954;28;19921;-73
2023/10/12 05:58:13;;;;;;;;;;;;;;;-140.72;100.00;60983.31;5072682;28;19961;-72
2023/10/12 06:00:44;;;;;;;;;;;;;;;-140.72;100.00;60897.91;5074542;28;20001;-70
2023/10/12 06:03:15;;;;;;;;;;;;;;;-140.72;100.00;60930.47;5074896;28;19927;-70
2023/10/12 06:05:40;;;;;;;;;;;;;;;-140.72;100.00;60849.13;5076775;28;20007;-70
2023/10/12 06:08:06;;;;;;;;;;;;;;;-140.72;100.00;60800.31;5076750;28;19966;-70
2023/10/12 06:10:31;;;;;;;;;;;;;;;-140.72;100.00;60759.66;5068124;28;19921;-70
2023/10/12 06:12:56;;;;;;;;;;;;;;;-140.72;100.00;60751.50;5073287;28;20022;-70
2023/10/12 06:15:25;;;;;;;;;;;;;;;-140.72;100.00;60712.88;5074349;28;19923;-70
2023/10/12 06:17:51;;;;;;;;;;;;;;;-140.72;100.00;60682.38;5079546;28;19951;-70
2023/10/12 06:20:30;;;;;;;;;;;;;;;-140.72;100.00;60657.97;5085950;28;19927;-71
2023/10/12 06:22:55;;;;;;;;;;;;;;;-140.72;100.00;60643.75;5070992;28;20359;-71
2023/10/12 06:25:21;;;;;;;;;;;;;;;-140.72;100.00;60568.50;5074771;28;19916;-71
2023/10/12 06:27:48;;;;;;;;;;;;;;;-140.72;100.00;60576.66;5076286;28;19920;-70
2023/10/12 06:30:23;;;;;;;;;;;;;;;-140.72;100.00;60594.94;5075879;28;19962;-70
2023/10/12 06:32:48;;;;;;;;;;;;;;;-140.72;100.00;60590.88;5072750;28;19995;-70
2023/10/12 06:35:24;;;;;;;;;;;;;;;-140.72;100.00;60544.13;5073403;28;19959;-70
2023/10/12 06:37:49;;;;;;;;;;;;;;;-140.72;100.00;60525.81;5069425;28;19939;-70
2023/10/12 06:43:50;;;;;;;;;;;;;;;-140.72;100.00;60533.94;5079240;28;20409;-70
2023/10/12 06:45:46;;;;;;;;;;;;;;;-140.72;100.00;60546.16;5067833;28;19917;-70
2023/10/12 06:51:05;;;;;;;;;;;;;;;-140.72;100.00;60517.69;5075754;28;20298;-70
2023/10/12 06:53:34;;;;;;;;;;;;;;;-140.72;100.00;60527.84;5070171;28;19920;-71
2023/10/12 06:58:40;;;;;;;;;;;;;;;-140.72;100.00;60533.94;5071259;28;19955;-71
2023/10/12 07:01:26;;;;;;;;;;;;;;;-140.72;100.00;60503.44;5079413;28;19917;-70
2023/10/12 07:03:52;;;;;;;;;;;;;;;-140.72;100.00;60491.25;5071332;28;19917;-70
2023/10/12 07:06:17;;;;;;;;;;;;;;;-140.72;100.00;60533.94;5073522;28;19916;-70
2023/10/12 07:08:45;;;;;;;;;;;;;;;-140.72;100.00;60511.59;5075246;28;19966;-70
2023/10/12 07:11:13;;;;;;;;;;;;;;;-140.72;100.00;60477.00;5064919;28;19917;-70
2023/10/12 07:13:40;;;;;;;;;;;;;;;-140.72;100.00;60483.13;5080230;28;19917;-70
2023/10/12 07:16:09;;;;;;;;;;;;;;;-140.72;100.00;60462.78;5079410;28;20351;-71
2023/10/12 07:18:35;;;;;;;;;;;;;;;-140.72;100.00;60481.09;5074913;28;20011;-71
2023/10/12 07:21:00;;;;;;;;;;;;;;;-140.72;100.00;60436.34;5074679;28;20572;-70
2023/10/12 07:23:42;;;;;;;;;;;;;;;-140.72;100.00;60454.66;5074586;28;19927;-70
2023/10/12 07:26:12;;;;;;;;;;;;;;;-140.72;100.00;60430.25;5073759;28;20012;-70
2023/10/12 07:28:41;;;;;;;;;;;;;;;-140.72;100.00;60454.66;5076241;28;19963;-70
2023/10/12 07:42:05;;;;;;;;;;;;;;;-140.72;100.00;60442.44;5061446;28;19916;-70
2023/10/12 07:44:40;;;;;;;;;;;;;;;-140.72;100.00;60432.28;5074427;28;19923;-70
2023/10/12 07:47:14;;;;;;;;;;;;;;;-140.72;100.00;60426.19;5074129;28;19920;-70
2023/10/12 07:49:47;;;;;;;;;;;;;;;-140.72;100.00;60456.69;5074439;28;19921;-69
2023/10/12 07:54:47;;;;;;;;;;;;;;;-140.72;100.00;60438.38;5076090;28;19962;-72
2023/10/12 07:57:12;;;;;;;;;;;;;;;-140.72;100.00;60413.97;5064614;28;20008;-72
2023/10/12 07:59:38;;;;;;;;;;;;;;;-140.72;100.00;60407.88;5073727;28;20342;-73
2023/10/12 08:02:08;;;;;;;;;;;;;;;-140.72;100.00;60377.38;5074342;28;19964;-72
2023/10/12 08:04:33;;;;;;;;;;;;;;;-140.72;100.00;60434.31;5075385;28;19917;-69
2023/10/12 08:07:00;;;;;;;;;;;;;;;-140.72;100.00;60430.25;5074164;28;19927;-70
2023/10/12 08:11:51;;;;;;;;;;;;;;;-140.72;100.00;60442.44;5076123;28;19924;-70
2023/10/12 08:14:29;;;;;;;;;;;;;;;-140.72;100.00;60428.22;5077700;28;19988;-70
2023/10/12 08:19:44;;;;;;;;;;;;;;;-140.72;100.00;60411.94;5068226;28;19922;-70
2023/10/12 08:22:29;;;;;;;;;;;;;;;-140.72;100.00;60420.09;5075825;28;19920;-70
2023/10/12 08:24:58;;;;;;;;;;;;;;;-140.72;100.00;60401.78;5067760;28;19973;-72
2023/10/12 08:27:24;;;;;;;;;;;;;;;-140.72;100.00;60407.88;5073997;28;19916;-72
2023/10/12 08:37:26;;;;;;;;;;;;;;;-140.72;100.00;60292.00;5072371;28;20322;-71
2023/10/12 08:44:59;;;;;;;;;;;;;;;-140.72;100.00;60202.53;5075016;28;20003;-71
2023/10/12 08:47:26;;;;;;;;;;;;;;;-140.72;100.00;60161.88;5075855;28;19976;-70
2023/10/12 08:50:04;;;;;;;;;;;;;;;-140.72;100.00;60172.03;5079095;28;20007;-70
2023/10/12 08:52:31;;;;;;;;;;;;;;;-140.72;100.00;60117.16;5072162;28;19928;-70
2023/10/12 08:55:13;;;;;;;;;;;;;;;-140.72;100.00;60106.97;5072950;28;19921;-71
2023/10/12 08:58:01;;;;;;;;;;;;;;;-140.72;100.00;60088.69;5077684;28;19923;-73
2023/10/12 09:03:02;;;;;;;;;;;;;;;-140.72;100.00;60064.28;5075904;28;19960;-71
2023/10/12 09:05:28;;;;;;;;;;;;;;;-140.72;100.00;60015.50;5069517;28;19924;-71
2023/10/12 09:10:48;;;;;;;;;;;;;;;-140.72;100.00;60029.72;5070525;28;20007;-71
2023/10/12 09:13:18;;;;;;;;;;;;;;;-140.72;100.00;60056.16;5069043;28;20329;-72
2023/10/12 09:15:46;;;;;;;;;;;;;;;-140.72;100.00;60019.56;5067620;28;21700;-72
2023/10/12 09:18:18;;;;;;;;;;;;;;;-140.72;100.00;60001.25;5066675;28;19917;-72
2023/10/12 09:21:18;;;;;;;;;;;;;;;-140.72;100.00;60003.28;5074735;28;20066;-72
2023/10/12 09:26:34;;;;;;;;;;;;;;;-140.72;100.00;59954.50;5072527;28;20366;-72
2023/10/12 09:36:43;;;;;;;;;;;;;;;-140.72;100.00;59942.31;5070091;28;19952;-73
2023/10/12 09:39:11;;;;;;;;;;;;;;;-140.72;100.00;59934.19;5076357;28;19988;-72
2023/10/12 09:41:40;;;;;;;;;;;;;;;-140.72;100.00;59954.50;5077822;28;19920;-79
2023/10/12 09:44:11;;;;;;;;;;;;;;;-140.72;100.00;59962.63;5075831;28;19928;-73
2023/10/12 09:46:37;;;;;;;;;;;;;;;-140.72;100.00;59974.84;5076849;28;19920;-75
2023/10/12 09:49:07;;;;;;;;;;;;;;;-140.72;100.00;59950.44;5084040;28;19927;-73
2023/10/12 09:51:37;;;;;;;;;;;;;;;-140.72;100.00;59950.44;5077684;28;19927;-72
2023/10/12 09:54:18;;;;;;;;;;;;;;;-140.72;100.00;59964.66;5077821;28;19939;-73
2023/10/12 09:56:57;;;;;;;;;;;;;;;-140.72;100.00;59930.09;5080970;28;19917;-69
2023/10/12 09:59:22;;;;;;;;;;;;;;;-140.72;100.00;59903.69;5077285;28;19921;-71
2023/10/12 10:01:51;;;;;;;;;;;;;;;-140.72;100.00;59919.94;5088933;28;20023;-70
2023/10/12 10:06:51;;;;;;;;;;;;;;;-140.72;100.00;59917.91;5077862;28;19920;-69
2023/10/12 10:09:36;;;;;;;;;;;;;;;-140.72;100.00;59958.56;5079875;28;19920;-69
2023/10/12 10:12:04;;;;;;;;;;;;;;;-140.72;100.00;59877.25;5068341;28;19916;-70
2023/10/12 10:14:34;;;;;;;;;;;;;;;-140.72;100.00;59901.66;5080571;28;19920;-71
2023/10/12 10:17:00;;;;;;;;;;;;;;;-140.72;100.00;59877.25;5067569;28;19916;-69
2023/10/12 10:19:29;;;;;;;;;;;;;;;-140.72;100.00;59897.56;5077089;28;19916;-69
2023/10/12 10:22:14;;;;;;;;;;;;;;;-140.72;100.00;59875.22;5076804;28;19923;-69
2023/10/12 10:24:46;;;;;;;;;;;;;;;-140.72;100.00;59879.28;5071870;28;20007;-69
2023/10/12 10:27:15;;;;;;;;;;;;;;;-140.72;100.00;59869.13;5076734;28;19916;-69
2023/10/12 10:29:41;;;;;;;;;;;;;;;-140.72;100.00;59881.31;5076828;28;19917;-69
2023/10/12 10:32:07;;;;;;;;;;;;;;;-140.72;100.00;59891.47;5074947;28;20405;-69
2023/10/12 10:34:34;;;;;;;;;;;;;;;-140.72;100.00;59869.13;5076030;28;19916;-69
2023/10/12 10:36:59;;;;;;;;;;;;;;;-140.72;100.00;59840.66;5089504;28;19938;-69
2023/10/12 10:44:21;;;;;;;;;;;;;;;-140.72;100.00;59863.03;5075618;28;19916;-69
2023/10/12 10:49:45;;;;;;;;;;;;;;;-140.72;100.00;59867.09;5079409;28;19924;-70
2023/10/12 10:52:14;;;;;;;;;;;;;;;-140.72;100.00;59889.44;5089246;28;20065;-70
2023/10/12 10:54:40;;;;;;;;;;;;;;;-140.72;100.00;59877.25;5065320;28;20341;-70
2023/10/12 10:57:17;;;;;;;;;;;;;;;-140.72;100.00;59879.28;5075778;28;20370;-70
2023/10/12 10:59:43;;;;;;;;;;;;;;;-140.72;100.00;59844.72;5075090;28;20248;-69
2023/10/12 11:02:11;;;;;;;;;;;;;;;-140.72;100.00;59836.59;5079994;28;19924;-69
2023/10/12 11:04:42;;;;;;;;;;;;;;;-140.72;100.00;59812.19;5072627;28;19921;-69
2023/10/12 11:07:13;;;;;;;;;;;;;;;-140.72;100.00;59838.63;5074928;28;20392;-69
2023/10/12 11:12:14;;;;;;;;;;;;;;;-140.72;100.00;59891.47;5083549;28;19923;-69
2023/10/12 11:14:43;;;;;;;;;;;;;;;-140.72;100.00;59958.56;5075667;28;19937;-73
2023/10/12 11:17:08;;;;;;;;;;;;;;;-140.72;100.00;59991.09;5075032;28;19920;-72
2023/10/12 11:19:36;;;;;;;;;;;;;;;-140.72;100.00;60031.75;5074959;28;20011;-70
2023/10/12 11:22:01;;;;;;;;;;;;;;;-140.72;100.00;60062.25;5078081;28;19920;-70
2023/10/12 11:24:27;;;;;;;;;;;;;;;-140.72;100.00;60027.69;5075576;28;19916;-70
2023/10/12 11:26:54;;;;;;;;;;;;;;;-140.72;100.00;60080.56;5085920;28;19961;-70
2023/10/12 11:29:19;;;;;;;;;;;;;;;-140.72;100.00;60123.25;5086713;28;19920;-70
2023/10/12 11:32:10;;;;;;;;;;;;;;;-140.72;100.00;60113.06;5079988;28;20294;-72
2023/10/12 11:34:41;;;;;;;;;;;;;;;-140.72;100.00;60113.06;5088177;28;19916;-71
2023/10/12 11:37:07;;;;;;;;;;;;;;;-140.72;100.00;60074.44;5061121;28;20375;-71
2023/10/12 11:39:45;;;;;;;;;;;;;;;-140.72;100.00;60054.13;5073058;28;19928;-71
2023/10/12 11:42:14;;;;;;;;;;;;;;;-140.72;100.00;60092.75;5078564;28;19923;-71
2023/10/12 11:44:42;;;;;;;;;;;;;;;-140.72;100.00;60076.47;5072850;28;19951;-71
2023/10/12 11:47:28;;;;;;;;;;;;;;;-140.72;100.00;60088.69;5077903;28;19917;-71
2023/10/12 11:49:55;;;;;;;;;;;;;;;-140.72;100.00;60102.91;5058381;28;19928;-71
2023/10/12 11:52:30;;;;;;;;;;;;;;;-140.72;100.00;60098.84;5080673;28;19923;-71
2023/10/12 11:55:21;;;;;;;;;;;;;;;-140.72;100.00;60133.41;5072851;28;19917;-71
2023/10/12 11:57:54;;;;;;;;;;;;;;;-140.72;100.00;60096.81;5081936;28;19920;-71
2023/10/12 12:00:26;;;;;;;;;;;;;;;-140.72;100.00;60102.91;5074269;28;19920;-71
2023/10/12 12:02:57;;;;;;;;;;;;;;;-140.72;100.00;60096.81;5072838;28;19921;-71
2023/10/12 12:05:31;;;;;;;;;;;;;;;-140.72;100.00;60180.16;5077881;28;19917;-71
2023/10/12 12:07:58;;;;;;;;;;;;;;;-140.72;100.00;60176.09;5074164;28;19944;-70
2023/10/12 12:12:57;;;;;;;;;;;;;;;-140.72;100.00;60226.94;5073958;28;19920;-71
2023/10/12 12:15:24;;;;;;;;;;;;;;;-140.72;100.00;60231.00;5087190;28;19917;-70
2023/10/12 12:17:50;;;;;;;;;;;;;;;-140.72;100.00;60277.75;5073955;28;19917;-70
2023/10/12 12:20:19;;;;;;;;;;;;;;;-140.72;100.00;60312.31;5070466;28;20290;-70
2023/10/12 12:22:46;;;;;;;;;;;;;;;-140.72;100.00;60332.66;5082480;28;19920;-70
2023/10/12 12:25:21;;;;;;;;;;;;;;;-140.72;100.00;60287.94;5083308;28;19939;-70
2023/10/12 12:27:49;;;;;;;;;;;;;;;-140.72;100.00;60401.78;5058347;28;20083;-70
2023/10/12 12:30:25;;;;;;;;;;;;;;;-140.72;100.00;60422.13;5073233;28;19962;-70
2023/10/12 12:32:50;;;;;;;;;;;;;;;-140.72;100.00;60479.06;5079632;28;19916;-70
2023/10/12 12:35:15;;;;;;;;;;;;;;;-140.72;100.00;60515.66;5080267;28;20298;-70
2023/10/12 12:37:41;;;;;;;;;;;;;;;-140.72;100.00;60511.59;5073618;28;20263;-70
2023/10/12 12:42:50;;;;;;;;;;;;;;;-140.72;100.00;60538.00;5066319;28;20323;-71
2023/10/12 12:45:15;;;;;;;;;;;;;;;-140.72;100.00;60599.00;5068846;28;19955;-70
2023/10/12 12:47:40;;;;;;;;;;;;;;;-140.72;100.00;60637.66;5087025;28;19963;-70
2023/10/12 12:50:06;;;;;;;;;;;;;;;-140.72;100.00;60645.78;5073863;28;19963;-70
2023/10/12 12:52:31;;;;;;;;;;;;;;;-140.72;100.00;60668.16;5073835;28;19923;-71
2023/10/12 12:54:57;;;;;;;;;;;;;;;-140.72;100.00;60672.22;5080102;28;19996;-70
2023/10/12 12:57:25;;;;;;;;;;;;;;;-140.72;100.00;60731.19;5074985;28;19928;-70
2023/10/12 12:59:50;;;;;;;;;;;;;;;-140.72;100.00;60731.19;5077683;28;20018;-71
2023/10/12 13:02:16;;;;;;;;;;;;;;;-140.72;100.00;60771.84;5073859;28;19920;-70
2023/10/12 13:04:41;;;;;;;;;;;;;;;-140.72;100.00;60792.19;5072998;28;19921;-70
2023/10/12 13:07:09;;;;;;;;;;;;;;;-140.72;100.00;60794.22;5076301;28;20286;-69
2023/10/12 13:09:36;;;;;;;;;;;;;;;-140.72;100.00;60804.38;5077663;28;20357;-70
2023/10/12 13:12:01;;;;;;;;;;;;;;;-140.72;100.00;60824.72;5076177;28;20263;-70
2023/10/12 13:14:28;;;;;;;;;;;;;;;-140.72;100.00;60855.22;5077288;28;19931;-70
2023/10/12 13:16:54;;;;;;;;;;;;;;;-140.72;100.00;60863.34;5077488;28;20019;-69
2023/10/12 13:19:20;;;;;;;;;;;;;;;-140.72;100.00;60863.34;5077164;28;20021;-69
2023/10/12 13:21:45;;;;;;;;;;;;;;;-140.72;100.00;60906.06;5073166;28;19932;-69
2023/10/12 13:24:12;;;;;;;;;;;;;;;-140.72;100.00;60877.59;5073968;28;20351;-70
2023/10/12 13:26:43;;;;;;;;;;;;;;;-140.72;100.00;60906.06;5081874;28;20408;-71
2023/10/12 13:29:08;;;;;;;;;;;;;;;-140.72;100.00;60912.16;5078103;28;19923;-71
2023/10/12 13:31:35;;;;;;;;;;;;;;;-140.72;100.00;60924.34;5070645;28;19916;-72
2023/10/12 13:34:05;;;;;;;;;;;;;;;-140.72;100.00;60930.47;5074769;28;19943;-70
2023/10/12 13:36:30;;;;;;;;;;;;;;;-140.72;100.00;60963.00;5083430;28;19924;-70
2023/10/12 13:38:56;;;;;;;;;;;;;;;-140.72;100.00;60969.09;5078517;28;20055;-70
2023/10/12 13:41:21;;;;;;;;;;;;;;;-140.72;100.00;60942.66;5078088;28;19916;-70
2023/10/12 13:43:48;;;;;;;;;;;;;;;-140.72;100.00;60954.84;5081722;28;19924;-70
2023/10/12 13:46:15;;;;;;;;;;;;;;;-140.72;100.00;60908.09;5091198;28;19965;-69
2023/10/12 13:48:41;;;;;;;;;;;;;;;-140.72;100.00;60934.53;5077967;28;19920;-72
2023/10/12 13:51:30;;;;;;;;;;;;;;;-140.72;100.00;60930.47;5080846;28;20397;-74
2023/10/12 13:53:53;;;;;;;;;;;;;;;-140.72;100.00;60885.72;5077591;28;20367;-71
2023/10/12 13:56:24;;;;;;;;;;;;;;;-140.72;100.00;60869.44;5078493;28;19921;-72
2023/10/12 13:58:52;;;;;;;;;;;;;;;-140.72;100.00;60920.28;5076216;28;19920;-74
2023/10/12 14:01:20;;;;;;;;;;;;;;;-140.72;100.00;60851.16;5076921;28;19970;-72
2023/10/12 14:03:53;;;;;;;;;;;;;;;-140.72;100.00;60832.84;5073722;28;19971;-72
2023/10/12 14:06:19;;;;;;;;;;;;;;;-140.72;100.00;60810.47;5086419;28;20478;-72
2023/10/12 14:08:46;;;;;;;;;;;;;;;-140.72;100.00;60767.78;5068461;28;19924;-72
2023/10/12 14:11:15;;;;;;;;;;;;;;;-140.72;100.00;60731.19;5076969;28;19917;-71
2023/10/12 14:13:40;;;;;;;;;;;;;;;-140.72;100.00;60743.38;5070609;28;20055;-71
2023/10/12 14:16:07;;;;;;;;;;;;;;;-140.72;100.00;60674.25;5086368;28;20397;-71
2023/10/12 14:18:32;;;;;;;;;;;;;;;-140.72;100.00;60635.63;5075598;28;19916;-71
2023/10/12 14:20:57;;;;;;;;;;;;;;;-140.72;100.00;60629.50;5084183;28;20252;-71
2023/10/12 14:23:32;;;;;;;;;;;;;;;-140.72;100.00;60617.31;5081024;28;19921;-71
2023/10/12 14:25:57;;;;;;;;;;;;;;;-140.72;100.00;60586.81;5079309;28;19965;-71
2023/10/12 14:28:23;;;;;;;;;;;;;;;-140.72;100.00;60529.88;5082932;28;20337;-71
2023/10/12 14:30:50;;;;;;;;;;;;;;;-140.72;100.00;60558.34;5075176;28;20278;-72
2023/10/12 14:33:16;;;;;;;;;;;;;;;-140.72;100.00;60470.91;5076160;28;19920;-71
2023/10/12 14:35:42;;;;;;;;;;;;;;;-140.72;100.00;60477.00;5076224;28;20435;-71
2023/10/12 14:38:08;;;;;;;;;;;;;;;-140.72;100.00;60442.44;5076708;28;20007;-71
2023/10/12 14:40:34;;;;;;;;;;;;;;;-140.72;100.00;60377.38;5076428;28;20020;-71